Time;durP1;ratioP1;P1;durP2;ratioP2;P2;SDS_P1;SDS_P2;PMS_P1;PMS_P2;Temp;Humidity;BMP_temperature;BMP_pressure;BME280_temperature;BME280_humidity;BME280_pressure;Samples;Min_cycle;Max_cycle;Signal;HPM_P1;HPM_P2
2024/02/11 00:01:58;;;;;;;6.70;6.00;;;10.40;41.90;;;;;;10529496;28;20358;-68
2024/02/11 00:07:02;;;;;;;7.70;6.90;;;10.50;42.00;;;;;;10530577;28;20230;-71
2024/02/11 00:12:05;;;;;;;7.63;6.70;;;10.50;41.70;;;;;;10527763;28;20222;-69
2024/02/11 00:17:10;;;;;;;6.77;6.17;;;10.30;42.00;;;;;;10533587;27;20262;-71
2024/02/11 00:22:13;;;;;;;6.87;6.13;;;10.30;42.40;;;;;;10524548;28;20231;-72
2024/02/11 00:27:16;;;;;;;6.47;5.93;;;10.30;42.20;;;;;;10526095;27;20339;-68
2024/02/11 00:32:21;;;;;;;6.80;6.00;;;10.30;42.10;;;;;;10525153;27;20222;-68
2024/02/11 00:37:24;;;;;;;6.73;6.13;;;10.30;42.20;;;;;;10534276;28;20222;-68
2024/02/11 00:42:28;;;;;;;5.43;4.93;;;10.20;42.30;;;;;;10536483;28;20231;-72
2024/02/11 00:47:34;;;;;;;6.53;5.93;;;10.20;42.50;;;;;;10536832;28;20227;-72
2024/02/11 00:52:40;;;;;;;6.37;5.77;;;10.20;42.70;;;;;;10532327;28;20319;-68
2024/02/11 00:57:43;;;;;;;7.93;7.23;;;10.20;42.60;;;;;;10539621;28;20230;-68
2024/02/11 01:02:48;;;;;;;6.77;6.17;;;10.30;42.70;;;;;;10538450;28;20600;-68
2024/02/11 01:07:52;;;;;;;6.50;4.90;;;10.30;42.70;;;;;;10538112;28;20225;-72
2024/02/11 01:12:55;;;;;;;5.07;4.57;;;10.40;42.70;;;;;;10536353;28;20238;-72
2024/02/11 01:18:00;;;;;;;4.80;4.40;;;10.40;42.90;;;;;;10528825;28;20235;-72
2024/02/11 01:23:03;;;;;;;4.73;4.33;;;10.40;43.10;;;;;;10534494;28;20254;-68
2024/02/11 01:28:07;;;;;;;5.57;4.83;;;10.50;43.00;;;;;;10535015;28;20697;-68
2024/02/11 01:33:12;;;;;;;5.10;4.60;;;10.50;42.90;;;;;;10532742;28;20609;-71
2024/02/11 01:38:15;;;;;;;4.87;4.37;;;10.50;43.30;;;;;;10530425;28;20742;-68
2024/02/11 01:43:18;;;;;;;4.70;4.30;;;10.50;43.30;;;;;;10533808;28;20236;-69
2024/02/11 01:48:24;;;;;;;6.50;4.97;;;10.50;43.20;;;;;;10532629;28;20238;-72
2024/02/11 01:53:28;;;;;;;6.07;4.80;;;10.50;43.50;;;;;;10531965;28;20230;-72
2024/02/11 01:58:32;;;;;;;5.87;4.93;;;10.60;43.30;;;;;;10530946;27;20326;-72
2024/02/11 02:03:38;;;;;;;5.60;4.80;;;10.60;43.20;;;;;;10533595;28;20237;-68
2024/02/11 02:08:41;;;;;;;4.83;4.43;;;10.70;43.30;;;;;;10534811;28;20233;-72
2024/02/11 02:13:44;;;;;;;5.60;5.10;;;10.70;43.00;;;;;;10532462;27;20310;-72
2024/02/11 02:18:51;;;;;;;6.00;5.50;;;10.70;42.90;;;;;;10535367;27;20223;-72
2024/02/11 02:23:56;;;;;;;5.27;4.77;;;10.60;43.30;;;;;;10534975;28;20219;-72
2024/02/11 02:29:00;;;;;;;5.93;5.43;;;10.60;43.70;;;;;;10531842;28;20227;-68
2024/02/11 02:34:03;;;;;;;5.53;5.03;;;10.50;43.80;;;;;;10533914;28;20774;-69
2024/02/11 02:39:10;;;;;;;5.67;4.97;;;10.50;43.90;;;;;;10533577;28;20226;-68
2024/02/11 02:44:13;;;;;;;5.30;4.80;;;10.60;44.30;;;;;;10531265;27;20234;-68
2024/02/11 02:49:17;;;;;;;5.63;5.07;;;10.70;44.20;;;;;;10532452;28;20815;-72
2024/02/11 02:54:21;;;;;;;5.50;5.00;;;10.70;44.30;;;;;;10531812;27;20709;-72
2024/02/11 02:59:24;;;;;;;6.23;5.67;;;10.80;44.60;;;;;;10530244;28;20223;-72
2024/02/11 03:04:28;;;;;;;5.97;5.47;;;10.80;44.40;;;;;;10531886;28;20224;-71
2024/02/11 03:09:32;;;;;;;7.63;6.93;;;10.90;44.40;;;;;;10531041;27;20223;-71
2024/02/11 03:14:35;;;;;;;8.33;7.53;;;11.00;44.60;;;;;;10529192;28;20220;-71
2024/02/11 03:19:41;;;;;;;8.67;7.83;;;11.00;44.40;;;;;;10536613;28;20219;-71
2024/02/11 03:24:46;;;;;;;9.07;8.27;;;11.10;44.60;;;;;;10525365;28;20713;-72
2024/02/11 03:29:49;;;;;;;8.13;7.30;;;11.10;44.80;;;;;;10533026;28;20227;-71
2024/02/11 03:34:52;;;;;;;8.57;7.47;;;11.20;44.70;;;;;;10527919;28;20224;-71
2024/02/11 03:39:57;;;;;;;7.73;7.13;;;11.20;44.80;;;;;;10531763;28;20231;-72
2024/02/11 03:45:00;;;;;;;8.37;7.57;;;11.20;45.20;;;;;;10530341;28;20223;-72
2024/02/11 03:50:06;;;;;;;7.93;7.13;;;11.30;45.10;;;;;;10528746;27;20215;-72
2024/02/11 03:55:11;;;;;;;8.43;7.63;;;11.30;45.00;;;;;;10527232;28;20693;-71
2024/02/11 04:00:17;;;;;;;8.93;8.13;;;11.40;46.20;;;;;;10526775;28;20232;-71
2024/02/11 04:05:22;;;;;;;9.30;8.50;;;11.40;45.20;;;;;;10530201;28;20227;-71
2024/02/11 04:10:35;;;;;;;9.57;8.70;;;11.50;45.10;;;;;;10530447;28;20635;-68
2024/02/11 04:15:41;;;;;;;9.67;8.77;;;11.50;45.40;;;;;;10528748;28;20231;-68
2024/02/11 04:20:44;;;;;;;9.33;8.33;;;11.50;45.00;;;;;;10527857;28;20618;-71
2024/02/11 04:25:50;;;;;;;9.40;8.50;;;11.60;45.10;;;;;;10525569;28;20745;-71
2024/02/11 04:30:55;;;;;;;9.27;8.37;;;11.60;45.50;;;;;;10528025;28;20233;-71
2024/02/11 04:36:00;;;;;;;9.57;8.37;;;11.60;45.30;;;;;;10525556;28;20314;-71
2024/02/11 04:41:06;;;;;;;8.87;7.97;;;11.60;45.20;;;;;;10526193;28;20211;-71
2024/02/11 04:46:09;;;;;;;8.00;7.30;;;11.60;45.70;;;;;;10529212;28;20234;-71
2024/02/11 04:51:14;;;;;;;8.23;7.50;;;11.60;45.30;;;;;;10524589;28;20211;-71
2024/02/11 04:56:19;;;;;;;9.00;8.07;;;11.70;45.40;;;;;;10524397;28;20236;-71
2024/02/11 05:01:23;;;;;;;9.07;8.17;;;11.70;45.90;;;;;;10527302;28;20235;-71
2024/02/11 05:06:30;;;;;;;8.13;7.40;;;11.70;45.50;;;;;;10527309;28;20227;-71
2024/02/11 05:11:35;;;;;;;9.53;8.60;;;11.70;45.50;;;;;;10527188;28;20309;-71
2024/02/11 05:16:41;;;;;;;8.57;7.77;;;11.70;45.90;;;;;;10527915;27;20235;-68
2024/02/11 05:21:45;;;;;;;10.53;9.63;;;11.70;46.20;;;;;;10530437;28;20224;-72
2024/02/11 05:26:49;;;;;;;9.50;8.50;;;11.80;45.90;;;;;;10529790;27;20302;-68
2024/02/11 05:31:53;;;;;;;10.43;9.23;;;11.80;46.20;;;;;;10534285;27;20246;-71
2024/02/11 05:36:59;;;;;;;9.13;8.10;;;11.70;46.10;;;;;;10532426;28;20223;-68
2024/02/11 05:42:09;;;;;;;9.37;8.47;;;11.70;46.40;;;;;;10535700;28;20639;-68
2024/02/11 05:47:12;;;;;;;9.87;8.87;;;11.70;47.00;;;;;;10529519;28;20698;-71
2024/02/11 05:52:16;;;;;;;9.37;8.57;;;11.70;46.60;;;;;;10529257;28;20749;-71
2024/02/11 05:57:21;;;;;;;9.53;8.67;;;11.70;46.70;;;;;;10531434;28;20762;-72
2024/02/11 06:02:26;;;;;;;9.17;8.37;;;11.70;47.20;;;;;;10536389;28;20244;-71
2024/02/11 06:07:29;;;;;;;9.50;8.60;;;11.80;46.80;;;;;;10533331;27;20601;-68
2024/02/11 06:12:35;;;;;;;10.27;9.37;;;11.70;46.80;;;;;;10534222;28;20226;-72
2024/02/11 06:17:38;;;;;;;6.17;5.67;;;11.80;47.50;;;;;;10528050;28;20228;-72
2024/02/11 06:22:43;;;;;;;2.60;2.40;;;11.80;46.70;;;;;;10536408;28;20243;-68
2024/02/11 06:27:49;;;;;;;1.77;1.67;;;11.70;45.90;;;;;;10532010;27;20766;-68
2024/02/11 06:32:53;;;;;;;0.90;0.90;;;11.60;45.90;;;;;;10526271;28;20226;-71
2024/02/11 06:37:59;;;;;;;0.70;0.70;;;11.30;45.40;;;;;;10524937;27;20227;-68
2024/02/11 06:43:11;;;;;;;1.20;1.10;;;11.10;45.30;;;;;;10534001;28;20314;-68
2024/02/11 06:48:15;;;;;;;1.00;1.00;;;11.00;46.60;;;;;;10527388;28;20302;-71
2024/02/11 06:53:18;;;;;;;0.93;0.93;;;10.80;45.50;;;;;;10530752;28;20276;-71
2024/02/11 06:58:23;;;;;;;1.00;1.00;;;10.70;45.40;;;;;;10530380;28;20709;-68
2024/02/11 07:03:28;;;;;;;0.90;0.90;;;10.60;45.70;;;;;;10529468;28;20249;-71
2024/02/11 07:08:31;;;;;;;1.03;0.90;;;10.50;45.60;;;;;;10529970;28;20257;-71
2024/02/11 07:13:36;;;;;;;1.50;1.40;;;10.40;45.80;;;;;;10534398;28;20219;-71
2024/02/11 07:18:39;;;;;;;1.00;1.00;;;10.40;46.30;;;;;;10532402;28;20792;-71
2024/02/11 07:23:43;;;;;;;1.60;1.00;;;10.30;45.90;;;;;;10535017;28;20235;-71
2024/02/11 07:28:48;;;;;;;1.00;1.00;;;10.30;46.10;;;;;;10527383;28;20304;-71
2024/02/11 07:33:51;;;;;;;0.90;0.90;;;10.20;46.20;;;;;;10529718;28;20221;-68
2024/02/11 07:38:55;;;;;;;0.70;0.70;;;10.20;46.10;;;;;;10527563;28;20652;-72
2024/02/11 07:44:03;;;;;;;0.70;0.70;;;10.20;46.00;;;;;;10530779;28;20351;-72
2024/02/11 07:49:07;;;;;;;0.80;0.80;;;10.20;46.70;;;;;;10532464;28;20226;-71
2024/02/11 07:54:10;;;;;;;0.80;0.80;;;10.20;46.30;;;;;;10523446;28;20259;-71
2024/02/11 07:59:14;;;;;;;0.80;0.77;;;10.20;46.10;;;;;;10516175;28;20314;-71
2024/02/11 08:04:18;;;;;;;1.87;1.00;;;10.20;46.40;;;;;;10522790;28;20233;-71
2024/02/11 08:09:22;;;;;;;1.00;1.00;;;10.20;46.00;;;;;;10526075;28;20233;-71
2024/02/11 08:14:26;;;;;;;1.30;1.30;;;10.20;46.10;;;;;;10523415;28;20307;-71
2024/02/11 08:19:31;;;;;;;1.00;1.00;;;10.20;46.00;;;;;;10521248;28;20240;-71
2024/02/11 08:24:35;;;;;;;1.07;1.07;;;10.20;46.00;;;;;;10525391;28;20227;-71
2024/02/11 08:29:40;;;;;;;1.10;1.10;;;10.10;46.00;;;;;;10524371;28;20232;-71
2024/02/11 08:34:43;;;;;;;0.90;0.90;;;10.10;45.60;;;;;;10526610;28;20285;-71
2024/02/11 08:39:47;;;;;;;0.90;0.90;;;10.10;45.50;;;;;;10527896;28;20227;-71
2024/02/11 08:44:52;;;;;;;0.80;0.80;;;10.00;45.40;;;;;;10523962;28;20235;-71
2024/02/11 08:49:55;;;;;;;0.80;0.80;;;9.90;46.60;;;;;;10526959;28;20227;-71
2024/02/11 08:54:58;;;;;;;0.70;0.70;;;9.80;46.10;;;;;;10529232;28;20230;-72
2024/02/11 09:00:08;;;;;;;0.70;0.70;;;9.70;46.10;;;;;;10524916;28;20251;-71
2024/02/11 09:05:11;;;;;;;0.97;0.83;;;9.60;46.40;;;;;;10539783;28;20314;-71
2024/02/11 09:10:15;;;;;;;0.90;0.90;;;9.50;46.30;;;;;;10539006;28;20273;-71
2024/02/11 09:15:20;;;;;;;1.10;1.00;;;9.50;46.40;;;;;;10531112;28;20628;-71
2024/02/11 09:20:23;;;;;;;1.00;1.00;;;9.50;46.40;;;;;;10537219;27;20804;-72
2024/02/11 09:25:28;;;;;;;2.57;2.37;;;9.50;46.40;;;;;;10534301;28;20258;-71
2024/02/11 09:30:34;;;;;;;1.33;1.33;;;9.50;46.40;;;;;;10533617;27;20720;-71
2024/02/11 09:35:37;;;;;;;1.17;1.17;;;9.50;46.40;;;;;;10534105;28;20227;-71
2024/02/11 09:40:43;;;;;;;1.10;1.10;;;9.40;46.30;;;;;;10538794;27;20222;-71
2024/02/11 09:45:52;;;;;;;1.50;1.40;;;9.40;46.30;;;;;;10531944;28;20248;-71
2024/02/11 09:50:57;;;;;;;1.20;1.20;;;9.30;46.70;;;;;;10533595;28;20238;-71
2024/02/11 09:56:00;;;;;;;1.70;1.60;;;9.30;46.80;;;;;;10541682;27;20235;-71
2024/02/11 10:01:06;;;;;;;1.30;1.20;;;9.40;46.60;;;;;;10534140;28;20216;-71
2024/02/11 10:06:11;;;;;;;2.37;1.70;;;9.40;46.50;;;;;;10532419;28;20235;-78
2024/02/11 10:11:17;;;;;;;1.37;1.37;;;9.40;46.80;;;;;;10532616;27;20224;-72
2024/02/11 10:16:22;;;;;;;1.80;1.70;;;9.40;46.80;;;;;;10534933;28;20288;-72
2024/02/11 10:21:25;;;;;;;1.80;1.70;;;9.40;46.80;;;;;;10538084;28;20223;-71
2024/02/11 10:26:31;;;;;;;2.10;1.80;;;9.40;46.90;;;;;;10524971;28;20842;-71
2024/02/11 10:31:37;;;;;;;1.57;1.47;;;9.40;47.10;;;;;;10530151;28;20223;-72
2024/02/11 10:36:48;;;;;;;1.80;1.70;;;9.50;47.10;;;;;;10526783;28;20227;-71
2024/02/11 10:41:51;;;;;;;2.00;1.90;;;9.50;47.70;;;;;;10532549;28;20256;-70
2024/02/11 10:46:58;;;;;;;1.87;1.77;;;9.60;47.30;;;;;;10534687;28;20730;-70
2024/02/11 10:52:06;;;;;;;1.77;1.67;;;9.60;47.50;;;;;;10530987;28;20308;-70
2024/02/11 10:57:19;;;;;;;1.90;1.80;;;9.60;47.70;;;;;;10531139;28;20219;-71
2024/02/11 11:02:25;;;;;;;2.17;2.07;;;9.60;48.00;;;;;;10524839;28;20219;-71
2024/02/11 11:07:31;;;;;;;2.27;2.17;;;9.70;48.10;;;;;;10526693;28;20231;-71
2024/02/11 11:12:46;;;;;;;2.67;2.50;;;9.70;47.90;;;;;;10529243;28;20213;-70
2024/02/11 11:17:50;;;;;;;2.23;2.07;;;9.80;47.70;;;;;;10540395;28;20222;-70
2024/02/11 11:22:55;;;;;;;6.83;6.13;;;9.90;48.00;;;;;;10529140;28;20249;-70
2024/02/11 11:28:13;;;;;;;3.60;3.30;;;9.90;48.00;;;;;;10535516;28;20230;-70
2024/02/11 11:33:17;;;;;;;2.93;2.70;;;9.90;48.40;;;;;;10524529;28;20211;-68
2024/02/11 11:38:21;;;;;;;2.70;2.50;;;10.00;47.30;;;;;;10534192;28;20227;-67
2024/02/11 11:43:25;;;;;;;3.77;3.47;;;10.00;47.20;;;;;;10533399;28;20258;-67
2024/02/11 11:48:31;;;;;;;3.30;3.00;;;10.10;47.20;;;;;;10531088;28;20655;-72
2024/02/11 11:53:35;;;;;;;3.80;3.60;;;10.10;47.60;;;;;;10531076;28;20245;-72
2024/02/11 11:58:38;;;;;;;3.40;3.10;;;10.10;47.30;;;;;;10531673;28;20254;-67
2024/02/11 12:03:44;;;;;;;3.50;3.20;;;10.20;47.40;;;;;;10531048;28;20516;-67
2024/02/11 12:08:47;;;;;;;5.40;5.00;;;10.20;47.60;;;;;;10532121;28;20313;-70
2024/02/11 12:13:50;;;;;;;3.97;3.67;;;10.40;47.70;;;;;;10531131;28;20302;-70
2024/02/11 12:18:55;;;;;;;3.67;3.37;;;10.40;47.50;;;;;;10531694;28;20647;-67
2024/02/11 12:24:00;;;;;;;4.30;3.90;;;10.50;47.80;;;;;;10525058;28;20310;-67
2024/02/11 12:29:04;;;;;;;5.23;4.80;;;10.50;47.40;;;;;;10529738;28;20219;-67
2024/02/11 12:34:08;;;;;;;5.20;4.80;;;10.50;47.60;;;;;;10532273;28;20227;-67
2024/02/11 12:39:12;;;;;;;5.53;4.53;;;10.60;47.80;;;;;;10530514;28;20230;-67
2024/02/11 12:44:15;;;;;;;4.87;4.47;;;10.60;47.60;;;;;;10525258;28;20220;-67
2024/02/11 12:49:20;;;;;;;4.30;3.90;;;10.70;47.60;;;;;;10529038;28;20223;-67
2024/02/11 12:54:24;;;;;;;4.40;4.00;;;10.80;47.60;;;;;;10523774;28;20227;-67
2024/02/11 12:59:28;;;;;;;5.03;4.53;;;10.80;47.40;;;;;;10533199;28;20357;-70
2024/02/11 13:04:34;;;;;;;5.50;5.00;;;10.90;47.40;;;;;;10522752;28;20243;-70
2024/02/11 13:09:37;;;;;;;4.73;4.23;;;10.90;47.70;;;;;;10524542;28;20308;-70
2024/02/11 13:14:40;;;;;;;5.40;4.93;;;10.90;47.60;;;;;;10519405;28;20219;-71
2024/02/11 13:19:45;;;;;;;5.03;4.53;;;10.90;47.40;;;;;;10526319;28;20649;-70
2024/02/11 13:24:48;;;;;;;4.10;3.80;;;10.90;47.60;;;;;;10523525;28;20231;-70
2024/02/11 13:29:52;;;;;;;4.10;3.70;;;11.00;47.40;;;;;;10522200;27;20255;-70
2024/02/11 13:34:57;;;;;;;4.20;3.80;;;11.00;47.40;;;;;;10524948;28;20231;-71
2024/02/11 13:40:00;;;;;;;4.00;3.67;;;11.00;47.60;;;;;;10516949;28;20264;-71
2024/02/11 13:45:04;;;;;;;4.17;3.80;;;11.00;47.30;;;;;;10520023;28;20732;-71
2024/02/11 13:50:10;;;;;;;4.37;3.93;;;11.10;47.20;;;;;;10530075;28;20280;-70
2024/02/11 13:55:16;;;;;;;4.20;3.80;;;11.10;47.30;;;;;;10530609;28;20284;-70
2024/02/11 14:00:21;;;;;;;4.73;4.33;;;11.10;47.10;;;;;;10532243;28;20218;-70
2024/02/11 14:05:26;;;;;;;5.33;4.93;;;11.20;47.00;;;;;;10528402;28;20231;-71
2024/02/11 14:10:30;;;;;;;4.80;4.40;;;11.20;47.00;;;;;;10528155;28;20801;-71
2024/02/11 14:15:35;;;;;;;4.80;4.30;;;11.20;47.00;;;;;;10532697;28;20262;-71
2024/02/11 14:20:40;;;;;;;4.13;3.83;;;11.20;46.90;;;;;;10529526;28;20325;-72
2024/02/11 14:25:43;;;;;;;4.30;3.83;;;11.20;46.90;;;;;;10531968;28;20724;-71
2024/02/11 14:30:48;;;;;;;4.30;3.90;;;11.30;47.00;;;;;;10535129;28;20227;-74
2024/02/11 14:35:53;;;;;;;4.70;3.50;;;11.20;47.00;;;;;;10529036;28;20227;-71
2024/02/11 14:41:02;;;;;;;5.63;5.13;;;11.30;47.00;;;;;;10535502;28;20221;-71
2024/02/11 14:46:07;;;;;;;4.87;4.47;;;11.30;46.80;;;;;;10523328;28;20276;-70
2024/02/11 14:51:11;;;;;;;6.07;5.47;;;11.30;46.80;;;;;;10526517;28;20260;-70
2024/02/11 14:56:15;;;;;;;4.83;4.10;;;11.30;46.80;;;;;;10525635;27;20223;-70
2024/02/11 15:01:18;;;;;;;5.47;5.00;;;11.30;46.70;;;;;;10532079;28;20265;-70
2024/02/11 15:06:23;;;;;;;12.33;10.67;;;11.30;46.80;;;;;;10530651;28;20327;-70
2024/02/11 15:11:28;;;;;;;6.57;5.90;;;11.30;46.90;;;;;;10530729;28;20253;-70
2024/02/11 15:16:31;;;;;;;5.80;5.30;;;11.30;46.60;;;;;;10534769;28;20783;-70
2024/02/11 15:21:36;;;;;;;4.60;4.20;;;11.30;46.40;;;;;;10525968;28;20329;-70
2024/02/11 15:26:39;;;;;;;8.17;6.27;;;11.30;46.40;;;;;;10532843;27;20326;-70
2024/02/11 15:31:44;;;;;;;5.77;4.80;;;11.20;46.50;;;;;;10531255;28;20230;-70
2024/02/11 15:36:49;;;;;;;4.37;3.97;;;11.20;46.50;;;;;;10534039;28;20700;-70
2024/02/11 15:41:53;;;;;;;3.60;3.37;;;11.20;46.40;;;;;;10533655;28;20220;-70
2024/02/11 15:46:57;;;;;;;3.67;3.37;;;11.20;46.60;;;;;;10531551;28;20223;-67
2024/02/11 15:52:02;;;;;;;5.07;4.67;;;11.20;46.50;;;;;;10528486;28;20227;-67
2024/02/11 15:57:05;;;;;;;4.00;3.70;;;11.20;46.50;;;;;;10532251;28;20236;-67
2024/02/11 16:02:09;;;;;;;3.60;3.30;;;11.20;46.50;;;;;;10527460;28;20228;-71
2024/02/11 16:07:13;;;;;;;4.67;4.27;;;11.20;46.50;;;;;;10525735;28;20242;-71
2024/02/11 16:12:17;;;;;;;4.57;4.17;;;11.20;46.60;;;;;;10525235;27;20310;-71
2024/02/11 16:17:20;;;;;;;3.23;2.93;;;11.20;46.50;;;;;;10528606;28;20223;-71
2024/02/11 16:22:25;;;;;;;3.27;3.00;;;11.10;46.20;;;;;;10528943;28;20245;-71
2024/02/11 16:27:28;;;;;;;5.17;4.67;;;11.10;46.30;;;;;;10531449;27;20244;-71
2024/02/11 16:32:31;;;;;;;4.30;3.90;;;11.10;46.30;;;;;;10525318;28;20227;-71
2024/02/11 16:37:36;;;;;;;5.00;4.50;;;11.10;46.20;;;;;;10527592;28;20236;-71
2024/02/11 16:42:41;;;;;;;5.17;4.70;;;11.10;46.20;;;;;;10524951;28;20231;-71
2024/02/11 16:47:45;;;;;;;5.70;4.93;;;11.20;46.20;;;;;;10523717;28;20253;-71
2024/02/11 16:52:49;;;;;;;5.50;5.00;;;11.20;46.20;;;;;;10517867;28;20646;-71
2024/02/11 16:57:52;;;;;;;5.63;5.13;;;11.10;46.00;;;;;;10521754;28;20227;-71
2024/02/11 17:02:55;;;;;;;7.70;7.03;;;11.10;46.10;;;;;;10529680;28;20219;-71
2024/02/11 17:08:00;;;;;;;7.53;6.87;;;11.10;46.00;;;;;;10523097;28;20293;-71
2024/02/11 17:13:04;;;;;;;7.17;6.23;;;11.10;46.10;;;;;;10520275;28;20312;-72
2024/02/11 17:18:07;;;;;;;8.73;6.50;;;11.10;46.20;;;;;;10525402;28;20224;-72
2024/02/11 17:23:12;;;;;;;6.17;5.37;;;11.10;46.00;;;;;;10534426;27;20238;-71
2024/02/11 17:28:16;;;;;;;9.33;7.33;;;11.10;45.90;;;;;;10534356;28;20227;-72
2024/02/11 17:33:22;;;;;;;9.93;8.60;;;11.10;45.90;;;;;;10534745;28;20232;-71
2024/02/11 17:38:27;;;;;;;7.97;7.23;;;11.10;45.80;;;;;;10536291;28;20227;-71
2024/02/11 17:43:30;;;;;;;4.73;4.33;;;11.00;45.80;;;;;;10530419;28;20338;-70
2024/02/11 17:48:33;;;;;;;4.87;4.47;;;11.00;45.80;;;;;;10538203;27;20234;-70
2024/02/11 17:53:38;;;;;;;9.40;8.47;;;11.00;45.60;;;;;;10536740;28;20614;-70
2024/02/11 17:58:52;;;;;;;3.80;3.50;;;10.90;45.70;;;;;;10533765;28;20223;-70
2024/02/11 18:03:56;;;;;;;4.70;4.30;;;10.90;45.60;;;;;;10531778;28;20227;-70
2024/02/11 18:09:00;;;;;;;4.50;4.10;;;10.90;45.70;;;;;;10533361;28;20224;-70
2024/02/11 18:14:03;;;;;;;4.40;4.10;;;10.90;45.70;;;;;;10528366;28;20265;-70
2024/02/11 18:19:08;;;;;;;4.27;3.43;;;10.90;45.70;;;;;;10532417;28;20306;-70
2024/02/11 18:24:13;;;;;;;5.13;4.40;;;10.90;45.50;;;;;;10534150;27;20756;-70
2024/02/11 18:29:16;;;;;;;3.40;3.10;;;10.90;45.40;;;;;;10533434;27;20318;-67
2024/02/11 18:34:20;;;;;;;3.87;3.57;;;10.90;45.40;;;;;;10532488;28;20239;-67
2024/02/11 18:39:24;;;;;;;4.00;3.70;;;10.90;45.40;;;;;;10535565;27;20236;-67
2024/02/11 18:44:28;;;;;;;4.03;3.37;;;10.90;45.20;;;;;;10532431;28;20237;-67
2024/02/11 18:49:31;;;;;;;3.27;2.97;;;10.90;45.30;;;;;;10529608;27;20234;-72
2024/02/11 18:54:36;;;;;;;7.50;6.30;;;10.90;45.30;;;;;;10532773;28;20702;-72
2024/02/11 18:59:42;;;;;;;6.30;5.10;;;10.90;45.30;;;;;;10526367;28;20852;-72
2024/02/11 19:04:45;;;;;;;4.47;4.07;;;10.80;45.20;;;;;;10530933;28;20235;-72
2024/02/11 19:09:50;;;;;;;3.73;3.27;;;10.80;45.40;;;;;;10536035;28;20276;-72
2024/02/11 19:14:54;;;;;;;3.23;3.03;;;10.80;45.40;;;;;;10532209;28;20232;-72
2024/02/11 19:19:59;;;;;;;3.80;3.10;;;10.80;45.50;;;;;;10530871;28;20216;-70
2024/02/11 19:25:05;;;;;;;2.93;2.73;;;10.80;45.40;;;;;;10527962;28;20239;-70
2024/02/11 19:30:09;;;;;;;2.97;2.50;;;10.80;45.50;;;;;;10534239;27;20289;-67
2024/02/11 19:35:14;;;;;;;3.50;3.20;;;10.80;45.50;;;;;;10528600;28;20235;-67
2024/02/11 19:40:19;;;;;;;3.13;2.87;;;10.80;45.40;;;;;;10529693;28;20807;-67
2024/02/11 19:45:22;;;;;;;3.00;2.77;;;10.80;45.40;;;;;;10531304;28;20238;-72
2024/02/11 19:50:25;;;;;;;4.07;3.70;;;10.80;45.40;;;;;;10532007;27;20263;-72
2024/02/11 19:55:31;;;;;;;2.90;2.70;;;10.80;45.20;;;;;;10534407;27;20607;-67
2024/02/11 20:00:34;;;;;;;2.83;2.63;;;10.80;45.10;;;;;;10526180;28;20293;-67
2024/02/11 20:05:37;;;;;;;3.57;3.00;;;10.90;45.10;;;;;;10527854;28;20314;-67
2024/02/11 20:10:44;;;;;;;5.10;4.00;;;10.90;45.10;;;;;;10533230;28;20300;-73
2024/02/11 20:15:47;;;;;;;3.33;3.03;;;11.00;45.10;;;;;;10523311;28;20228;-72
2024/02/11 20:20:52;;;;;;;4.10;3.70;;;11.00;44.90;;;;;;10529863;27;20219;-72
2024/02/11 20:25:56;;;;;;;3.80;2.90;;;11.00;44.80;;;;;;10528766;27;20236;-72
2024/02/11 20:30:59;;;;;;;3.33;3.07;;;10.90;44.70;;;;;;10526115;28;20335;-72
2024/02/11 20:36:03;;;;;;;3.20;2.93;;;10.90;44.80;;;;;;10534186;28;20303;-67
2024/02/11 20:41:10;;;;;;;3.07;2.83;;;10.90;44.80;;;;;;10530192;28;20220;-67
2024/02/11 20:46:14;;;;;;;2.60;2.40;;;10.80;44.60;;;;;;10529260;28;20226;-71
2024/02/11 20:51:18;;;;;;;2.50;2.30;;;10.80;44.80;;;;;;10524194;28;20224;-71
2024/02/11 20:56:26;;;;;;;2.37;2.17;;;10.80;44.80;;;;;;10531124;28;21771;-71
2024/02/11 21:01:30;;;;;;;2.50;2.30;;;10.70;44.70;;;;;;10536651;28;20227;-71
2024/02/11 21:06:34;;;;;;;3.00;2.13;;;10.60;44.70;;;;;;10538555;28;21608;-71
2024/02/11 21:11:39;;;;;;;2.50;2.30;;;10.60;44.80;;;;;;10528798;28;20222;-71
2024/02/11 21:16:43;;;;;;;2.27;2.07;;;10.60;44.70;;;;;;10533236;28;20261;-71
2024/02/11 21:21:47;;;;;;;2.47;2.33;;;10.50;44.70;;;;;;10525211;28;20219;-71
2024/02/11 21:26:52;;;;;;;2.80;2.50;;;10.50;44.70;;;;;;10527445;27;20233;-71
2024/02/11 21:31:55;;;;;;;2.43;2.23;;;10.40;44.60;;;;;;10534890;28;20298;-72
2024/02/11 21:36:59;;;;;;;2.27;2.10;;;10.40;44.70;;;;;;10529035;27;20219;-72
2024/02/11 21:42:04;;;;;;;2.63;2.43;;;10.30;44.70;;;;;;10527805;28;20315;-72
2024/02/11 21:47:08;;;;;;;2.40;2.27;;;10.30;44.60;;;;;;10529708;28;20223;-72
2024/02/11 21:52:12;;;;;;;2.27;2.00;;;10.20;44.50;;;;;;10535000;28;20224;-73
2024/02/11 21:57:17;;;;;;;1.93;1.70;;;10.20;44.40;;;;;;10525106;28;20218;-72
2024/02/11 22:02:20;;;;;;;2.03;1.70;;;10.10;44.40;;;;;;10529706;28;20233;-68
2024/02/11 22:07:24;;;;;;;1.60;1.50;;;10.10;44.60;;;;;;10529915;28;20234;-67
2024/02/11 22:12:29;;;;;;;1.50;1.40;;;10.10;44.60;;;;;;10526357;28;20443;-67
2024/02/11 22:17:32;;;;;;;1.30;1.20;;;10.10;44.40;;;;;;10531219;28;20227;-67
2024/02/11 22:22:35;;;;;;;1.20;1.10;;;10.20;44.40;;;;;;10527137;28;20226;-67
2024/02/11 22:27:40;;;;;;;1.50;1.40;;;10.10;44.40;;;;;;10527961;28;20716;-67
2024/02/11 22:32:43;;;;;;;1.60;1.30;;;10.10;44.30;;;;;;10526468;28;20223;-67
2024/02/11 22:37:46;;;;;;;2.40;1.40;;;10.20;44.40;;;;;;10530257;28;20777;-72
2024/02/11 22:42:51;;;;;;;1.30;1.20;;;10.10;44.30;;;;;;10526383;28;20223;-72
2024/02/11 22:47:55;;;;;;;1.10;1.10;;;10.10;44.30;;;;;;10528201;28;20226;-70
2024/02/11 22:52:58;;;;;;;1.40;1.30;;;10.10;44.40;;;;;;10530605;28;20246;-70
2024/02/11 22:58:03;;;;;;;1.60;1.50;;;10.20;44.50;;;;;;10533169;28;20251;-70
2024/02/11 23:03:08;;;;;;;1.60;1.50;;;10.20;44.30;;;;;;10526665;28;20826;-70
2024/02/11 23:08:13;;;;;;;2.10;1.33;;;10.20;44.30;;;;;;10532114;28;20223;-70
2024/02/11 23:13:19;;;;;;;1.57;1.47;;;10.20;44.40;;;;;;10532609;28;20224;-70
2024/02/11 23:18:22;;;;;;;1.83;1.67;;;10.20;44.40;;;;;;10526710;28;20315;-72
2024/02/11 23:23:26;;;;;;;2.13;1.73;;;10.20;44.20;;;;;;10533662;28;20220;-73
2024/02/11 23:28:30;;;;;;;1.83;1.70;;;10.20;44.10;;;;;;10525400;28;20338;-72
2024/02/11 23:33:33;;;;;;;2.80;1.70;;;10.20;44.30;;;;;;10536747;28;21774;-72
2024/02/11 23:38:37;;;;;;;1.70;1.60;;;10.30;44.30;;;;;;10529446;28;20651;-72
2024/02/11 23:43:42;;;;;;;1.60;1.50;;;10.30;44.40;;;;;;10531203;28;20223;-72
2024/02/11 23:48:45;;;;;;;1.60;1.50;;;10.30;44.40;;;;;;10532149;28;20899;-71
2024/02/11 23:53:49;;;;;;;2.00;1.90;;;10.40;44.50;;;;;;10527006;28;20223;-71
2024/02/11 23:58:55;;;;;;;1.87;1.77;;;10.40;44.30;;;;;;10521038;28;20219;-70
